Time;durP1;ratioP1;P1;durP2;ratioP2;P2;SDS_P1;SDS_P2;PMS_P1;PMS_P2;Temp;Humidity;BMP_temperature;BMP_pressure;BME280_temperature;BME280_humidity;BME280_pressure;Samples;Min_cycle;Max_cycle;Signal;HPM_P1;HPM_P2
2022/12/30 00:01:44;;;;;;;5.37;1.47;;;7.40;99.90;;;;;;5035824;28;20174;-81
2022/12/30 00:04:10;;;;;;;5.23;1.67;;;7.40;99.90;;;;;;5035377;28;20192;-81
2022/12/30 00:06:35;;;;;;;5.17;1.30;;;7.40;99.90;;;;;;5018115;28;20629;-81
2022/12/30 00:09:01;;;;;;;6.10;1.70;;;7.40;99.90;;;;;;5018069;28;20182;-80
2022/12/30 00:11:32;;;;;;;6.63;1.70;;;7.30;99.90;;;;;;5017195;28;20209;-82
2022/12/30 00:33:48;;;;;;;3.67;1.37;;;6.90;99.90;;;;;;5017752;28;20189;-81
2022/12/30 00:36:14;;;;;;;3.43;1.50;;;6.80;99.90;;;;;;4999602;28;20293;-81
2022/12/30 00:38:39;;;;;;;4.57;1.70;;;6.80;99.90;;;;;;5017809;28;20265;-80
2022/12/30 00:43:49;;;;;;;4.70;1.50;;;6.90;99.90;;;;;;5016980;28;20249;-80
2022/12/30 00:46:15;;;;;;;5.03;1.63;;;6.80;99.90;;;;;;5000596;28;20190;-80
2022/12/30 00:56:53;;;;;;;5.17;1.60;;;6.80;99.90;;;;;;5015127;28;20240;-80
2022/12/30 00:59:19;;;;;;;4.33;1.70;;;6.70;99.90;;;;;;5017706;28;20618;-80
2022/12/30 01:01:44;;;;;;;6.00;1.87;;;6.70;99.90;;;;;;5000057;28;20183;-80
2022/12/30 01:04:10;;;;;;;4.17;1.60;;;6.70;99.90;;;;;;5016842;28;20197;-79
2022/12/30 01:06:37;;;;;;;6.40;2.03;;;6.60;99.90;;;;;;5017666;28;20179;-80
2022/12/30 01:09:02;;;;;;;4.17;1.53;;;6.60;99.90;;;;;;5017623;28;20265;-80
2022/12/30 01:11:28;;;;;;;4.00;1.67;;;6.60;99.90;;;;;;5000467;28;20232;-80
2022/12/30 01:13:53;;;;;;;6.47;1.90;;;6.50;99.90;;;;;;4999147;28;20182;-80
2022/12/30 01:16:19;;;;;;;6.17;1.87;;;6.50;99.90;;;;;;4999775;28;20672;-80
2022/12/30 01:18:45;;;;;;;6.63;1.83;;;6.50;99.90;;;;;;5000112;28;20277;-80
2022/12/30 01:21:10;;;;;;;6.47;2.00;;;6.50;99.90;;;;;;5000214;28;20273;-80
2022/12/30 01:23:37;;;;;;;6.80;1.83;;;6.50;99.90;;;;;;5016756;28;20194;-80
2022/12/30 01:26:04;;;;;;;8.00;1.80;;;6.50;99.90;;;;;;5016607;28;20210;-80
2022/12/30 01:28:31;;;;;;;7.10;1.83;;;6.50;99.90;;;;;;5016957;28;20245;-80
2022/12/30 01:30:58;;;;;;;3.30;1.63;;;6.50;99.90;;;;;;4998842;28;20167;-80
2022/12/30 01:33:24;;;;;;;5.53;1.73;;;6.40;99.90;;;;;;4998606;28;20186;-80
2022/12/30 01:35:49;;;;;;;5.70;1.70;;;6.40;99.90;;;;;;4998876;28;20199;-80
2022/12/30 01:38:15;;;;;;;4.90;1.77;;;6.30;99.90;;;;;;4998664;28;20171;-80
2022/12/30 01:40:42;;;;;;;7.20;2.07;;;6.20;99.90;;;;;;5016773;28;20226;-80
2022/12/30 01:43:13;;;;;;;5.77;1.80;;;6.20;99.90;;;;;;5014567;28;20245;-80
2022/12/30 01:45:42;;;;;;;5.70;1.97;;;6.10;99.90;;;;;;4998688;28;20202;-80
2022/12/30 01:48:18;;;;;;;5.40;1.57;;;6.00;99.90;;;;;;4998729;28;20173;-80
2022/12/30 01:50:47;;;;;;;3.87;1.73;;;6.00;99.90;;;;;;5016364;28;20168;-79
2022/12/30 01:53:22;;;;;;;5.83;1.80;;;6.00;99.90;;;;;;4998239;28;20216;-80
2022/12/30 01:56:04;;;;;;;3.43;1.73;;;6.00;99.90;;;;;;4998553;28;20201;-80
2022/12/30 01:58:57;;;;;;;7.00;2.00;;;6.00;99.90;;;;;;5015702;28;20189;-80
2022/12/30 02:01:23;;;;;;;7.20;1.90;;;6.10;99.90;;;;;;5016248;28;20185;-80
2022/12/30 02:03:57;;;;;;;3.17;1.50;;;6.10;99.90;;;;;;4997465;28;20203;-80
2022/12/30 02:06:30;;;;;;;3.80;1.60;;;6.10;99.90;;;;;;5015951;28;20261;-80
2022/12/30 02:08:56;;;;;;;5.40;1.80;;;6.10;99.90;;;;;;4998449;28;20311;-80
2022/12/30 02:11:22;;;;;;;9.60;2.07;;;6.00;99.90;;;;;;5016512;28;20220;-80
2022/12/30 02:13:48;;;;;;;7.53;1.90;;;6.10;99.90;;;;;;5015459;28;20200;-80
2022/12/30 02:16:35;;;;;;;7.23;1.80;;;6.00;99.90;;;;;;4997977;28;20252;-80
2022/12/30 02:19:34;;;;;;;5.43;1.80;;;6.00;99.90;;;;;;5012740;28;20252;-79
2022/12/30 02:22:21;;;;;;;6.37;1.93;;;6.00;99.90;;;;;;5005323;28;20182;-80
2022/12/30 02:25:08;;;;;;;8.97;2.03;;;6.00;99.90;;;;;;5012683;28;20202;-80
2022/12/30 02:27:43;;;;;;;4.63;1.67;;;6.00;99.90;;;;;;5014417;28;20272;-79
2022/12/30 02:30:11;;;;;;;5.63;1.70;;;6.00;99.90;;;;;;5015963;28;20178;-80
2022/12/30 02:32:59;;;;;;;6.43;1.90;;;6.00;99.90;;;;;;5014248;28;20281;-80
2022/12/30 02:35:31;;;;;;;5.93;1.90;;;6.00;99.90;;;;;;5007480;28;20630;-80
2022/12/30 02:38:01;;;;;;;8.57;2.07;;;6.00;99.90;;;;;;4997908;28;20178;-80
2022/12/30 02:46:20;;;;;;;7.13;1.80;;;5.80;99.90;;;;;;5021742;28;20549;-80
2022/12/30 02:48:49;;;;;;;7.80;2.20;;;5.70;99.90;;;;;;5022032;28;20227;-79
2022/12/30 02:54:00;;;;;;;7.73;2.30;;;5.60;99.90;;;;;;5021794;28;20176;-79
2022/12/30 02:56:26;;;;;;;5.30;1.57;;;5.60;99.90;;;;;;5021852;28;20201;-80
2022/12/30 03:03:56;;;;;;;4.60;1.70;;;5.60;99.90;;;;;;5020647;28;20178;-80
2022/12/30 03:05:28;;;;;;;11.23;1.93;;;5.50;99.90;;;;;;5022119;28;20203;-79
2022/12/30 03:08:33;;;;;;;8.70;1.83;;;5.50;99.90;;;;;;5004169;28;20192;-79
2022/12/30 03:11:13;;;;;;;5.57;1.87;;;5.60;99.90;;;;;;4981182;28;20192;-80
2022/12/30 03:13:59;;;;;;;8.83;1.80;;;5.70;99.90;;;;;;5003320;28;20238;-80
2022/12/30 03:16:30;;;;;;;9.60;1.90;;;5.70;99.90;;;;;;5021216;28;20188;-80
2022/12/30 03:18:59;;;;;;;8.73;1.90;;;5.60;99.90;;;;;;5021472;28;20180;-80
2022/12/30 03:21:27;;;;;;;6.53;1.80;;;5.60;99.90;;;;;;5021066;28;20182;-80
2022/12/30 03:29:29;;;;;;;5.27;1.50;;;5.30;99.90;;;;;;5020881;28;20187;-81
2022/12/30 03:31:55;;;;;;;7.60;2.03;;;5.30;99.90;;;;;;5019659;28;20202;-78
2022/12/30 03:34:22;;;;;;;7.53;1.80;;;5.30;99.90;;;;;;5003045;28;20241;-80
2022/12/30 03:36:50;;;;;;;10.97;2.10;;;5.30;99.90;;;;;;5003514;28;20176;-80
2022/12/30 03:39:39;;;;;;;7.30;1.70;;;5.30;99.90;;;;;;5003639;28;20207;-80
2022/12/30 03:42:06;;;;;;;5.80;2.00;;;5.30;99.90;;;;;;5020984;28;20609;-80
2022/12/30 03:44:33;;;;;;;6.67;2.00;;;5.30;99.90;;;;;;5020725;28;20201;-80
2022/12/30 03:46:59;;;;;;;6.37;1.90;;;5.20;99.90;;;;;;5003831;28;20253;-80
2022/12/30 03:49:25;;;;;;;5.93;1.70;;;5.20;99.90;;;;;;5002760;28;20638;-80
2022/12/30 03:51:50;;;;;;;6.63;1.80;;;5.20;99.90;;;;;;5021190;28;20262;-80
2022/12/30 03:54:18;;;;;;;6.93;1.93;;;5.20;99.90;;;;;;4999362;28;20611;-80
2022/12/30 03:56:44;;;;;;;5.70;2.23;;;5.10;99.90;;;;;;5000602;28;20186;-80
2022/12/30 03:59:09;;;;;;;6.00;2.00;;;5.10;99.90;;;;;;5017693;28;20673;-80
2022/12/30 04:01:35;;;;;;;7.50;1.70;;;5.20;99.90;;;;;;5017063;28;20575;-80
2022/12/30 04:04:01;;;;;;;5.80;2.00;;;5.20;99.90;;;;;;4999416;28;20183;-80
2022/12/30 04:06:26;;;;;;;7.47;1.87;;;5.20;99.90;;;;;;5000317;28;20184;-80
2022/12/30 04:08:52;;;;;;;6.20;1.70;;;5.20;99.90;;;;;;5000618;28;20176;-80
2022/12/30 04:11:17;;;;;;;8.10;1.90;;;5.30;99.90;;;;;;5000484;28;20184;-80
2022/12/30 04:13:43;;;;;;;5.80;2.00;;;5.30;99.90;;;;;;5016840;28;20218;-79
2022/12/30 04:16:09;;;;;;;6.83;2.17;;;5.30;99.90;;;;;;4999857;28;20208;-80
2022/12/30 04:18:34;;;;;;;7.27;2.10;;;5.40;99.90;;;;;;5000031;28;20171;-81
2022/12/30 04:21:00;;;;;;;7.70;2.00;;;5.50;99.90;;;;;;5017514;28;20217;-80
2022/12/30 04:23:26;;;;;;;5.97;1.80;;;5.50;99.90;;;;;;4999303;28;20172;-80
2022/12/30 04:25:51;;;;;;;8.23;2.20;;;5.60;99.90;;;;;;5000402;28;20682;-80
2022/12/30 04:28:17;;;;;;;7.33;2.00;;;5.60;99.90;;;;;;5018143;28;20648;-80
2022/12/30 04:30:42;;;;;;;6.23;1.70;;;5.60;99.90;;;;;;5000339;28;20384;-80
2022/12/30 04:33:08;;;;;;;5.57;1.50;;;5.70;99.90;;;;;;5015848;28;20187;-80
2022/12/30 04:35:34;;;;;;;8.43;2.30;;;5.70;99.90;;;;;;5000732;28;20203;-79
2022/12/30 04:37:59;;;;;;;7.13;2.10;;;5.70;99.90;;;;;;5017994;28;20195;-80
2022/12/30 04:40:25;;;;;;;5.93;1.80;;;5.70;99.90;;;;;;5000416;28;20206;-80
2022/12/30 04:42:50;;;;;;;8.10;1.93;;;5.70;99.90;;;;;;4999868;28;20213;-80
2022/12/30 04:45:16;;;;;;;5.97;1.80;;;5.70;99.90;;;;;;5000086;28;20232;-80
2022/12/30 04:47:42;;;;;;;5.13;1.63;;;5.70;99.90;;;;;;4999596;28;20208;-80
2022/12/30 04:50:07;;;;;;;9.43;2.07;;;5.70;99.90;;;;;;5000714;28;20219;-80
2022/12/30 04:52:34;;;;;;;4.63;1.90;;;5.80;99.90;;;;;;4999638;28;20273;-79
2022/12/30 04:54:59;;;;;;;5.80;1.77;;;5.80;99.90;;;;;;4999775;28;20202;-80
2022/12/30 04:57:25;;;;;;;6.13;1.80;;;5.80;99.90;;;;;;5017204;28;20175;-79
2022/12/30 04:59:51;;;;;;;5.27;1.70;;;5.70;99.90;;;;;;4999558;28;20205;-80
2022/12/30 05:02:16;;;;;;;6.40;2.10;;;5.80;99.90;;;;;;5016478;28;20264;-81
2022/12/30 05:04:42;;;;;;;6.73;1.83;;;5.80;99.90;;;;;;5016098;28;20196;-80
2022/12/30 05:07:07;;;;;;;6.37;1.50;;;5.80;99.90;;;;;;4999880;28;20182;-80
2022/12/30 05:09:33;;;;;;;4.97;1.50;;;5.80;99.90;;;;;;4999838;28;20212;-80
2022/12/30 05:11:59;;;;;;;4.50;2.10;;;5.70;99.90;;;;;;4999778;28;20187;-80
2022/12/30 05:14:24;;;;;;;4.43;1.80;;;5.70;99.90;;;;;;4998267;28;20743;-80
2022/12/30 05:16:50;;;;;;;7.13;1.70;;;5.70;99.90;;;;;;5017287;28;20268;-80
2022/12/30 05:19:15;;;;;;;5.67;2.03;;;5.70;99.90;;;;;;5017394;28;20205;-80
2022/12/30 05:21:41;;;;;;;6.93;1.80;;;5.70;99.90;;;;;;4999403;28;20180;-80
2022/12/30 05:26:54;;;;;;;6.77;2.37;;;5.60;99.90;;;;;;5017015;28;20190;-80
2022/12/30 05:29:20;;;;;;;4.73;1.90;;;5.50;99.90;;;;;;4997201;28;20319;-78
2022/12/30 05:31:46;;;;;;;7.17;1.90;;;5.50;99.90;;;;;;5013806;28;20631;-79
2022/12/30 05:34:12;;;;;;;4.53;1.83;;;5.50;99.90;;;;;;5013145;28;20738;-78
2022/12/30 05:36:37;;;;;;;7.03;1.90;;;5.50;99.90;;;;;;5013880;28;20202;-79
2022/12/30 05:39:04;;;;;;;5.20;1.67;;;5.50;99.90;;;;;;4996303;28;20189;-77
2022/12/30 05:41:30;;;;;;;5.13;1.60;;;5.60;99.90;;;;;;5013302;28;20635;-79
2022/12/30 05:43:55;;;;;;;5.10;1.93;;;5.60;99.90;;;;;;5012807;28;20181;-79
2022/12/30 05:46:21;;;;;;;6.23;1.80;;;5.60;99.90;;;;;;4996750;28;20177;-81
2022/12/30 05:48:47;;;;;;;8.00;2.00;;;5.70;99.90;;;;;;5014516;28;20180;-81
2022/12/30 05:51:13;;;;;;;9.17;2.40;;;5.70;99.90;;;;;;4997367;28;20179;-79
2022/12/30 05:53:38;;;;;;;6.50;2.10;;;5.80;99.90;;;;;;5013907;28;20174;-79
2022/12/30 05:56:04;;;;;;;6.50;2.40;;;5.90;99.90;;;;;;4996981;28;20291;-78
2022/12/30 05:58:30;;;;;;;8.93;2.20;;;6.00;99.90;;;;;;4996528;28;20184;-80
2022/12/30 06:00:56;;;;;;;4.50;2.33;;;6.00;99.90;;;;;;4996942;28;20688;-80
2022/12/30 06:03:22;;;;;;;6.33;2.10;;;6.00;99.90;;;;;;4996098;28;20267;-79
2022/12/30 06:05:47;;;;;;;8.03;2.30;;;6.00;99.90;;;;;;5014099;28;20226;-80
2022/12/30 06:08:13;;;;;;;5.90;2.30;;;6.10;99.90;;;;;;5013835;28;20176;-79
2022/12/30 06:10:39;;;;;;;8.00;2.40;;;6.10;99.90;;;;;;4995025;28;20580;-78
2022/12/30 06:13:04;;;;;;;4.97;2.07;;;6.10;99.90;;;;;;4994457;28;20238;-77
2022/12/30 06:15:30;;;;;;;3.90;2.07;;;6.10;99.90;;;;;;5013798;28;20220;-77
2022/12/30 06:17:55;;;;;;;10.13;2.60;;;6.10;99.90;;;;;;4994692;28;20276;-78
2022/12/30 06:20:21;;;;;;;6.40;2.13;;;6.10;99.90;;;;;;5012554;28;20211;-77
2022/12/30 06:22:46;;;;;;;8.73;2.10;;;6.20;99.90;;;;;;5011895;28;20273;-78
2022/12/30 06:25:12;;;;;;;5.27;2.10;;;6.10;99.90;;;;;;5012342;28;20201;-79
2022/12/30 06:27:37;;;;;;;7.03;2.03;;;6.20;99.90;;;;;;5012325;28;20181;-78
2022/12/30 06:30:04;;;;;;;10.23;2.50;;;6.20;99.90;;;;;;4994825;28;20181;-78
2022/12/30 06:32:31;;;;;;;6.63;2.27;;;6.10;99.90;;;;;;4994439;28;20185;-76
2022/12/30 06:34:57;;;;;;;8.53;2.47;;;6.10;99.90;;;;;;5012244;28;20190;-75
2022/12/30 06:37:22;;;;;;;10.50;2.90;;;6.10;99.90;;;;;;4994774;28;20181;-80
2022/12/30 06:39:48;;;;;;;5.73;2.30;;;6.20;99.90;;;;;;4995138;28;20254;-78
2022/12/30 06:42:13;;;;;;;5.70;2.20;;;6.10;99.90;;;;;;4994239;28;20645;-74
2022/12/30 06:44:39;;;;;;;7.10;2.73;;;6.10;99.90;;;;;;4994539;28;20236;-76
2022/12/30 06:47:04;;;;;;;6.23;2.30;;;6.10;99.90;;;;;;5013206;28;20213;-79
2022/12/30 06:49:30;;;;;;;10.60;2.37;;;6.10;99.90;;;;;;4995494;28;20656;-76
2022/12/30 06:51:55;;;;;;;7.40;2.70;;;6.20;99.90;;;;;;5011125;28;20632;-77
2022/12/30 06:54:21;;;;;;;7.43;2.27;;;6.20;99.90;;;;;;4993950;28;20276;-78
2022/12/30 06:56:46;;;;;;;5.17;2.20;;;6.20;99.90;;;;;;4993896;28;20220;-77
2022/12/30 06:59:12;;;;;;;5.77;2.73;;;6.20;99.90;;;;;;5012464;28;20208;-78
2022/12/30 07:01:37;;;;;;;7.50;2.60;;;6.20;99.90;;;;;;4995167;28;20224;-79
2022/12/30 07:04:03;;;;;;;7.77;2.77;;;6.30;99.90;;;;;;5012336;28;20179;-78
2022/12/30 07:06:29;;;;;;;8.93;2.13;;;6.30;99.90;;;;;;4993657;28;20169;-77
2022/12/30 07:08:54;;;;;;;7.83;2.23;;;6.30;99.90;;;;;;5012205;28;20209;-78
2022/12/30 07:11:20;;;;;;;8.33;2.07;;;6.30;99.90;;;;;;4994874;28;20258;-78
2022/12/30 07:13:45;;;;;;;6.10;2.30;;;6.30;99.90;;;;;;4994323;28;20174;-77
2022/12/30 07:16:11;;;;;;;5.63;2.10;;;6.30;99.90;;;;;;5012150;28;20218;-77
2022/12/30 07:18:36;;;;;;;7.50;1.93;;;6.30;99.90;;;;;;5012603;28;20183;-77
2022/12/30 07:21:02;;;;;;;6.50;2.30;;;6.30;99.90;;;;;;5012374;28;20618;-77
2022/12/30 07:23:28;;;;;;;6.83;2.40;;;6.30;99.90;;;;;;5012015;28;20254;-77
2022/12/30 07:25:53;;;;;;;7.63;1.90;;;6.30;99.90;;;;;;5012429;28;20206;-76
2022/12/30 07:28:19;;;;;;;7.37;1.90;;;6.30;99.90;;;;;;5013029;28;20213;-77
2022/12/30 07:30:44;;;;;;;7.07;1.93;;;6.30;99.90;;;;;;5016470;28;20181;-74
2022/12/30 07:33:10;;;;;;;6.73;2.20;;;6.30;99.90;;;;;;5015489;28;20232;-77
2022/12/30 07:35:35;;;;;;;9.70;2.60;;;6.30;99.90;;;;;;5016209;28;20203;-77
2022/12/30 07:38:01;;;;;;;8.00;2.43;;;6.30;99.90;;;;;;5015189;28;20183;-77
2022/12/30 07:40:27;;;;;;;5.27;2.37;;;6.30;99.90;;;;;;5014988;28;20288;-77
2022/12/30 07:42:52;;;;;;;8.30;2.07;;;6.30;99.90;;;;;;4997645;28;20173;-77
2022/12/30 07:45:18;;;;;;;5.67;2.20;;;6.20;99.90;;;;;;5015764;28;20203;-77
2022/12/30 07:47:43;;;;;;;5.53;1.90;;;6.20;99.90;;;;;;5015716;28;20208;-77
2022/12/30 07:50:10;;;;;;;8.33;2.20;;;6.20;99.90;;;;;;5015882;28;20281;-79
2022/12/30 07:52:36;;;;;;;6.70;1.80;;;6.20;99.90;;;;;;5015603;28;20189;-76
2022/12/30 07:55:02;;;;;;;6.93;2.20;;;6.20;99.90;;;;;;5015780;28;20201;-76
2022/12/30 07:57:29;;;;;;;6.77;1.90;;;6.30;99.90;;;;;;4998148;28;20603;-76
2022/12/30 07:59:55;;;;;;;5.13;1.63;;;6.30;99.90;;;;;;4998151;28;20215;-76
2022/12/30 08:02:21;;;;;;;7.83;2.20;;;6.30;99.90;;;;;;4997279;28;20182;-77
2022/12/30 08:04:47;;;;;;;7.30;1.90;;;6.30;99.90;;;;;;4997697;28;20203;-76
2022/12/30 08:07:15;;;;;;;4.03;1.60;;;6.30;99.90;;;;;;5014063;28;20178;-77
2022/12/30 08:09:40;;;;;;;8.63;1.83;;;6.30;99.90;;;;;;4997564;28;20204;-76
2022/12/30 08:12:06;;;;;;;6.13;2.03;;;6.30;99.90;;;;;;5007205;28;20643;-75
2022/12/30 08:14:32;;;;;;;5.47;1.57;;;6.30;99.90;;;;;;5013384;28;20641;-75
2022/12/30 08:16:57;;;;;;;7.53;1.70;;;6.40;99.90;;;;;;5014247;28;20201;-75
2022/12/30 08:19:23;;;;;;;7.47;1.97;;;6.40;99.90;;;;;;5014943;28;20213;-75
2022/12/30 08:21:48;;;;;;;5.70;1.47;;;6.40;99.90;;;;;;5015302;28;20268;-76
2022/12/30 08:24:14;;;;;;;6.83;1.77;;;6.50;99.90;;;;;;5012525;28;20198;-77
2022/12/30 08:26:40;;;;;;;5.67;2.27;;;6.50;99.90;;;;;;5013491;28;20175;-76
2022/12/30 08:29:05;;;;;;;7.10;1.60;;;6.40;99.90;;;;;;5009004;28;20182;-77
2022/12/30 08:31:31;;;;;;;5.00;1.87;;;6.40;99.90;;;;;;4990653;28;20173;-74
2022/12/30 08:33:57;;;;;;;7.77;1.80;;;6.40;99.90;;;;;;5013082;28;20205;-74
2022/12/30 08:36:25;;;;;;;6.30;1.70;;;6.40;99.90;;;;;;4997472;28;20166;-76
2022/12/30 08:38:54;;;;;;;5.10;1.83;;;6.40;99.90;;;;;;4997089;28;20181;-76
2022/12/30 08:41:29;;;;;;;6.30;1.93;;;6.40;99.90;;;;;;5014585;28;20190;-76
2022/12/30 08:43:57;;;;;;;8.37;2.03;;;6.40;99.90;;;;;;5014305;28;20535;-76
2022/12/30 08:46:26;;;;;;;7.57;2.07;;;6.40;99.90;;;;;;4996530;28;20190;-75
2022/12/30 08:48:52;;;;;;;6.77;1.80;;;6.50;99.90;;;;;;4996851;28;20633;-76
2022/12/30 08:51:18;;;;;;;5.87;1.90;;;6.40;99.90;;;;;;5014303;28;20194;-75
2022/12/30 08:53:43;;;;;;;5.97;2.13;;;6.40;99.90;;;;;;5002546;28;20185;-76
2022/12/30 08:56:15;;;;;;;6.47;2.47;;;6.40;99.90;;;;;;4994847;28;20203;-76
2022/12/30 08:58:41;;;;;;;3.47;2.00;;;6.40;99.90;;;;;;4993477;28;20183;-76
2022/12/30 09:01:08;;;;;;;7.27;2.20;;;6.50;99.90;;;;;;4994912;28;20691;-76
2022/12/30 09:03:33;;;;;;;6.03;2.20;;;6.40;99.90;;;;;;4992835;28;20203;-76
2022/12/30 09:05:59;;;;;;;5.77;1.77;;;6.50;99.90;;;;;;4976440;28;20634;-76
2022/12/30 09:08:25;;;;;;;7.73;2.10;;;6.50;99.90;;;;;;4977429;28;20186;-76
2022/12/30 09:11:02;;;;;;;5.10;1.50;;;6.50;99.90;;;;;;4994532;28;20237;-76
2022/12/30 09:13:29;;;;;;;7.43;1.80;;;6.50;99.90;;;;;;4993918;28;20220;-75
2022/12/30 09:15:54;;;;;;;10.93;1.90;;;6.60;99.90;;;;;;5007721;28;20734;-76
2022/12/30 09:18:21;;;;;;;6.63;1.80;;;6.60;99.90;;;;;;5013893;28;20186;-77
2022/12/30 09:20:47;;;;;;;6.03;2.20;;;6.70;99.90;;;;;;5014086;28;20699;-76
2022/12/30 09:23:12;;;;;;;5.13;1.60;;;6.60;99.90;;;;;;5012392;28;20198;-77
2022/12/30 09:25:38;;;;;;;3.87;1.67;;;6.70;99.90;;;;;;5012941;28;20235;-77
2022/12/30 09:28:04;;;;;;;6.43;1.80;;;6.90;99.90;;;;;;5029100;28;20182;-77
2022/12/30 09:30:30;;;;;;;6.37;1.90;;;6.90;99.90;;;;;;5012404;28;20189;-77
2022/12/30 09:32:55;;;;;;;5.07;1.70;;;7.00;99.90;;;;;;5013041;28;20177;-76
2022/12/30 09:35:21;;;;;;;5.60;1.60;;;7.00;99.90;;;;;;4996034;28;20228;-76
2022/12/30 09:37:46;;;;;;;8.73;1.80;;;7.00;99.90;;;;;;5012393;28;20178;-77
2022/12/30 09:40:20;;;;;;;5.70;1.63;;;7.10;99.90;;;;;;5013807;28;20198;-76
2022/12/30 09:45:49;;;;;;;8.03;1.67;;;7.30;99.90;;;;;;5012821;28;20225;-75
2022/12/30 09:48:19;;;;;;;7.30;1.90;;;7.40;99.90;;;;;;5013354;28;20174;-76
2022/12/30 09:50:54;;;;;;;4.40;1.60;;;7.50;99.90;;;;;;5028293;28;20182;-76
2022/12/30 09:53:38;;;;;;;5.43;1.60;;;7.50;99.90;;;;;;5013145;28;20172;-73
2022/12/30 09:56:15;;;;;;;7.63;1.70;;;7.50;99.90;;;;;;5013389;28;20552;-76
2022/12/30 09:58:44;;;;;;;5.47;1.63;;;7.50;99.90;;;;;;4996030;28;20174;-76
2022/12/30 10:01:28;;;;;;;7.37;2.00;;;7.40;99.90;;;;;;4995517;28;20287;-74
2022/12/30 10:03:57;;;;;;;5.67;1.70;;;7.40;99.90;;;;;;5012667;28;20167;-75
2022/12/30 10:06:36;;;;;;;8.43;1.90;;;7.40;99.90;;;;;;5028622;28;20172;-75
2022/12/30 10:09:36;;;;;;;3.53;1.60;;;7.40;99.90;;;;;;5013133;28;20222;-76
2022/12/30 10:12:23;;;;;;;4.10;1.50;;;7.50;99.90;;;;;;4977318;28;20187;-77
2022/12/30 10:14:55;;;;;;;7.47;1.63;;;7.60;99.90;;;;;;5012703;28;20217;-76
2022/12/30 10:17:59;;;;;;;6.83;1.60;;;7.70;99.90;;;;;;4995381;28;20625;-76
2022/12/30 10:20:52;;;;;;;5.70;1.57;;;7.70;99.90;;;;;;4995130;28;20217;-76
2022/12/30 10:23:33;;;;;;;5.23;2.20;;;7.80;99.90;;;;;;5012414;28;20197;-76
2022/12/30 10:26:24;;;;;;;4.67;1.67;;;7.90;99.90;;;;;;5012792;28;20656;-76
2022/12/30 10:29:01;;;;;;;4.33;1.90;;;7.90;99.90;;;;;;4992154;28;20186;-77
2022/12/30 10:31:29;;;;;;;4.77;1.87;;;7.80;99.90;;;;;;4993414;28;20267;-76
2022/12/30 10:34:14;;;;;;;5.40;2.27;;;7.80;99.90;;;;;;4992846;28;20277;-77
2022/12/30 10:36:58;;;;;;;5.90;1.80;;;7.90;99.90;;;;;;4992238;28;20183;-77
2022/12/30 10:39:45;;;;;;;5.77;1.87;;;7.90;99.90;;;;;;4991733;28;20202;-76
2022/12/30 10:42:24;;;;;;;4.53;3.20;;;8.10;99.90;;;;;;5011430;28;20609;-76
2022/12/30 10:45:21;;;;;;;2.37;1.50;;;8.20;99.90;;;;;;5000746;28;20199;-76
2022/12/30 10:48:16;;;;;;;3.67;1.30;;;8.30;99.90;;;;;;4988080;28;20179;-76
2022/12/30 10:50:46;;;;;;;5.97;1.70;;;8.40;99.90;;;;;;5012045;28;20245;-76
2022/12/30 10:53:17;;;;;;;4.37;1.60;;;8.50;99.90;;;;;;4994313;28;20274;-77
2022/12/30 10:55:50;;;;;;;4.50;1.63;;;8.60;99.90;;;;;;5011892;28;20675;-79
2022/12/30 10:58:26;;;;;;;5.13;2.13;;;8.60;99.90;;;;;;4994985;28;20183;-77
2022/12/30 11:00:53;;;;;;;29.90;15.07;;;8.80;99.90;;;;;;5011944;28;20390;-76
2022/12/30 11:03:35;;;;;;;11.60;5.63;;;8.70;99.90;;;;;;4999731;28;20184;-79
2022/12/30 11:06:21;;;;;;;13.53;6.50;;;8.50;99.90;;;;;;5016667;28;20694;-76
2022/12/30 11:08:48;;;;;;;13.03;5.33;;;8.50;99.90;;;;;;5013502;28;20185;-77
2022/12/30 11:11:14;;;;;;;2.90;1.70;;;8.60;99.90;;;;;;5006230;28;20190;-76
2022/12/30 11:16:31;;;;;;;8.80;4.17;;;8.50;99.90;;;;;;5015818;28;20232;-76
2022/12/30 11:18:59;;;;;;;9.13;5.10;;;8.40;99.90;;;;;;5013660;28;20179;-78
2022/12/30 11:21:43;;;;;;;5.80;1.63;;;9.00;99.90;;;;;;5012707;28;20221;-78
2022/12/30 11:24:15;;;;;;;4.73;2.03;;;8.60;99.90;;;;;;4997466;28;20184;-78
2022/12/30 11:26:46;;;;;;;2.90;1.73;;;8.40;99.90;;;;;;5015978;28;20163;-77
2022/12/30 11:29:17;;;;;;;3.40;1.60;;;8.30;99.90;;;;;;5015866;28;20191;-78
2022/12/30 11:31:47;;;;;;;4.00;1.67;;;8.30;99.90;;;;;;4998505;28;20172;-78
2022/12/30 11:34:26;;;;;;;5.00;1.90;;;8.30;99.90;;;;;;4997500;28;20233;-78
2022/12/30 11:36:52;;;;;;;2.67;1.83;;;8.20;99.90;;;;;;4998226;28;20178;-76
2022/12/30 11:39:23;;;;;;;4.27;1.67;;;8.20;99.90;;;;;;5005964;28;20328;-78
2022/12/30 11:41:55;;;;;;;3.90;1.63;;;8.30;99.90;;;;;;5014288;28;20269;-77
2022/12/30 11:44:23;;;;;;;4.00;1.70;;;8.20;99.90;;;;;;4995612;28;20234;-77
2022/12/30 11:47:16;;;;;;;2.60;1.73;;;8.30;99.90;;;;;;5015875;28;20171;-77
2022/12/30 11:49:50;;;;;;;3.43;1.80;;;8.30;99.90;;;;;;5011619;28;20298;-77
2022/12/30 11:52:19;;;;;;;4.67;1.83;;;8.20;99.90;;;;;;5014933;28;20175;-77
2022/12/30 11:54:57;;;;;;;3.87;1.90;;;8.20;99.90;;;;;;4997646;28;20199;-78
2022/12/30 11:57:30;;;;;;;3.13;1.70;;;8.30;99.90;;;;;;5017562;28;20182;-79
2022/12/30 12:00:37;;;;;;;5.80;1.67;;;8.20;99.90;;;;;;5013550;28;20638;-77
2022/12/30 12:03:13;;;;;;;3.53;1.80;;;8.30;99.90;;;;;;5001807;28;20170;-82
2022/12/30 12:05:42;;;;;;;1.83;1.30;;;8.30;99.90;;;;;;5014493;28;20195;-77
2022/12/30 12:08:22;;;;;;;2.17;1.40;;;8.30;99.90;;;;;;5013234;28;20286;-75
2022/12/30 12:10:55;;;;;;;6.20;1.70;;;8.20;99.90;;;;;;5014400;28;20190;-78
2022/12/30 12:13:26;;;;;;;4.83;1.53;;;8.20;99.90;;;;;;5001841;28;20215;-78
2022/12/30 12:15:54;;;;;;;2.03;1.20;;;8.20;99.90;;;;;;5035142;22;20223;-81
2022/12/30 12:18:38;;;;;;;3.13;1.50;;;8.30;99.90;;;;;;5055387;28;20174;-80
2022/12/30 12:21:12;;;;;;;2.13;1.20;;;8.40;99.90;;;;;;5037810;28;20195;-81
2022/12/30 12:24:16;;;;;;;2.53;1.40;;;8.40;99.90;;;;;;5055264;28;20166;-81
2022/12/30 12:26:52;;;;;;;2.30;1.20;;;8.30;99.90;;;;;;5036281;28;20196;-81
2022/12/30 12:29:18;;;;;;;3.87;1.77;;;8.30;99.90;;;;;;5043114;28;20265;-80
2022/12/30 12:31:46;;;;;;;4.00;1.30;;;8.40;99.90;;;;;;5055309;28;20247;-81
2022/12/30 12:34:38;;;;;;;2.17;1.23;;;8.50;99.90;;;;;;5033188;28;20190;-81
2022/12/30 12:37:24;;;;;;;2.57;1.60;;;8.60;99.90;;;;;;5010845;28;20245;-81
2022/12/30 12:40:05;;;;;;;1.93;1.20;;;8.60;99.90;;;;;;5033696;28;20194;-81
2022/12/30 12:42:50;;;;;;;2.83;1.10;;;8.70;99.90;;;;;;5036640;28;20174;-80
2022/12/30 12:45:41;;;;;;;4.87;1.23;;;8.70;99.90;;;;;;5054396;28;20205;-81
2022/12/30 12:48:21;;;;;;;3.40;1.30;;;8.60;99.90;;;;;;5035484;28;20174;-82
2022/12/30 12:51:07;;;;;;;4.73;1.30;;;8.60;99.90;;;;;;5049566;28;20178;-82
2022/12/30 12:53:45;;;;;;;3.07;1.43;;;8.50;99.90;;;;;;5039197;28;20183;-81
2022/12/30 12:56:24;;;;;;;2.87;1.00;;;8.30;99.90;;;;;;5048416;28;20237;-80
2022/12/30 12:59:34;;;;;;;2.60;1.07;;;8.30;99.90;;;;;;5032446;28;20255;-80
2022/12/30 13:02:21;;;;;;;2.00;1.10;;;8.20;99.90;;;;;;5013132;28;20189;-80
2022/12/30 13:04:56;;;;;;;2.27;1.20;;;8.00;99.90;;;;;;5053894;28;20174;-81
2022/12/30 13:07:27;;;;;;;2.70;1.13;;;7.90;99.90;;;;;;5054508;28;20165;-77
2022/12/30 13:09:56;;;;;;;1.77;1.10;;;7.90;99.90;;;;;;5056127;28;20208;-81
2022/12/30 13:12:36;;;;;;;2.97;1.20;;;7.80;99.90;;;;;;5053328;28;20174;-79
2022/12/30 13:15:28;;;;;;;2.87;1.20;;;7.70;99.90;;;;;;5030181;28;20258;-82
2022/12/30 13:18:00;;;;;;;2.63;1.40;;;7.70;99.90;;;;;;5002462;28;20187;-81
2022/12/30 13:20:32;;;;;;;2.97;1.17;;;7.70;99.90;;;;;;5027976;28;20239;-80
2022/12/30 13:23:03;;;;;;;1.70;1.17;;;7.70;99.90;;;;;;5049557;28;20229;-81
2022/12/30 13:25:33;;;;;;;3.07;1.30;;;7.60;99.90;;;;;;5035054;28;20196;-81
2022/12/30 13:28:00;;;;;;;3.00;1.10;;;7.60;99.90;;;;;;5036152;28;20636;-81
2022/12/30 13:30:33;;;;;;;2.20;1.30;;;7.60;99.90;;;;;;5035677;28;20226;-80
2022/12/30 13:33:18;;;;;;;1.43;1.10;;;7.60;99.90;;;;;;5037574;28;20202;-78
2022/12/30 13:36:12;;;;;;;1.87;1.00;;;7.60;99.90;;;;;;5035109;28;20219;-81
2022/12/30 13:38:46;;;;;;;1.60;0.93;;;7.60;99.90;;;;;;5035329;28;20634;-81
2022/12/30 13:41:21;;;;;;;2.03;1.00;;;7.60;99.90;;;;;;5051763;28;20266;-82
2022/12/30 13:43:54;;;;;;;3.03;0.90;;;7.60;99.90;;;;;;5052802;28;20168;-82
2022/12/30 13:46:24;;;;;;;2.00;1.10;;;7.70;99.90;;;;;;5053025;28;20193;-82
2022/12/30 13:49:04;;;;;;;1.10;1.00;;;7.70;99.90;;;;;;5034386;28;20595;-81
2022/12/30 13:51:30;;;;;;;2.77;0.80;;;7.70;99.90;;;;;;5035500;28;20215;-82
2022/12/30 13:54:15;;;;;;;0.93;0.80;;;7.80;99.90;;;;;;5052701;28;20209;-81
2022/12/30 13:56:44;;;;;;;2.20;0.93;;;7.90;99.90;;;;;;5035067;28;20294;-82
2022/12/30 13:59:28;;;;;;;1.80;0.90;;;7.90;99.90;;;;;;5035091;28;20200;-82
2022/12/30 14:02:18;;;;;;;2.27;0.83;;;8.00;99.90;;;;;;5053213;28;20177;-82
2022/12/30 14:04:45;;;;;;;1.17;0.77;;;8.00;99.90;;;;;;5053054;28;20208;-81
2022/12/30 14:07:37;;;;;;;0.87;0.70;;;8.10;99.90;;;;;;5035421;28;20195;-81
2022/12/30 14:10:15;;;;;;;1.87;0.80;;;8.10;99.90;;;;;;5004954;28;20186;-81
2022/12/30 14:12:42;;;;;;;2.63;0.90;;;8.10;99.90;;;;;;5034352;28;20257;-80
2022/12/30 14:15:33;;;;;;;1.70;0.90;;;8.10;99.90;;;;;;5034916;28;20301;-82